Nakina, North Carolina
Current Conditions -  °F | °C
As of 5:35 AM on Sunday 21 Dec 2014 (Local Time) from KCPC Reporting Station
Overcast Overcast  
Wind Chill: 39°   Ceiling: 5000
Heat Index: 39°   Visibility: 10mi
Dew Point: 35°   Wind: 3mph
Humidity: 84%   Direction: 40°NE
Pressure: 30.24"   Gusts: NA
Location:  34.13°N, 78.67°W
Report Text: KCPC 211035Z AUTO 04003KT 10SM BKN050 OVC060 04/02 A3024 RMK AO2 T00400015
Loading
Personal Weather Stations






























Interactive Weather Map New forecast layout! Learn more

10-Day Weather Forecast

Advertisements
Track Severe Weather on mobile